KEMP

Emporia Municipal Airport

Emporia, Kansas, USA
METAR KEMP 260253Z AUTO 00000KT 10SM BKN070 06/M05 A3009 RMK AO2 SLP200 T00611050 53018
Observed Flight Rules
Feb-26 @ 02:53 UTC (20 minutes ago) Visual Flight Rules
Wind Visibility Clouds
Calm 10 miles
  • Broken at 7,000' AGL
Temperatures Readings
Current 6°C / 43°F
Dewpoint -5°C / 23°F
Humidity 46%
Altimeter 30.09" Hg
Pressure 1020 hPa
Elevation 367
METAR KEMP 260253Z AUTO 00000KT 10SM BKN070 06/M05 A3009 RMK AO2 SLP200 T00611050 53018
Observed Flight Rules
Feb-26 @ 02:53 UTC
(20 minutes ago)
VFR
Wind Visibility
Calm 10 miles
Clouds
  • Broken at 7,000' AGL
Temperature Dewpoint
6°C / 43°F -5°C / 23°F
Humidity Altimeter Pressure
46% 30.09" Hg 1020 hPa